ADDS METAR Data INFO
IDs: Format: Raw Decoded Include TAF

Data at: 1920 UTC 16 Aug 2017

KMKN 161915Z AUTO 20009G17KT 10SM BKN033 OVC090 32/23 A2995 RMK AO2 T03180227
KMKN 161855Z AUTO 21011G20KT 10SM BKN031 OVC090 32/23 A2996 RMK AO2 T03180226
KMKN 161835Z AUTO 18010G16KT 10SM BKN031 OVC090 32/23 A2996 RMK AO2 T03190226
KMKN 161815Z AUTO 20010G20KT 10SM BKN031 OVC090 32/23 A2997 RMK AO2 T03180225
KMKN 161755Z AUTO 18011G20KT 10SM SCT029 OVC090 32/22 A2997 RMK AO2 T03160224 10318 20253
KMKN 161735Z AUTO 20012G21KT 10SM BKN029 BKN034 BKN085 31/22 A2997 RMK AO2 T03130222
KMKN 161715Z AUTO 21013G18KT 10SM BKN027 BKN110 31/22 A2997 RMK AO2 LTG DSNT NE T03080221
KMKN 161655Z AUTO 19013G19KT 10SM BKN027 OVC100 31/22 A2997 RMK AO2 T03070224
KMKN 161635Z AUTO 19013G17KT 10SM BKN027 OVC110 29/22 A2998 RMK AO2 T02920221
KMKN 161615Z AUTO 19015G20KT 10SM OVC025 30/22 A2998 RMK AO2 T02960220
KMKN 161555Z AUTO 20012G17KT 10SM OVC025 29/22 A2997 RMK AO2 T02890221
KMKN 161535Z AUTO 19011G17KT 10SM OVC023 30/23 A2997 RMK AO2 T02970225
KMKN 161515Z AUTO 19014G20KT 10SM BKN023 28/22 A2996 RMK AO2 T02810220
KMKN 161455Z AUTO 19014G18KT 10SM SCT023 28/22 A2996 RMK AO2 T02750219
KMKN 161435Z AUTO 18011G15KT 10SM SCT023 27/22 A2996 RMK AO2 T02700220
KMKN 161415Z AUTO 19012KT 10SM CLR 27/22 A2995 RMK AO2 T02690218
KMKN 161355Z AUTO 19012G17KT 10SM CLR 27/22 A2995 RMK AO2 T02700218
KMKN 161335Z AUTO 18010KT 10SM CLR 27/22 A2995 RMK AO2 T02680218
KMKN 161315Z AUTO 17009G14KT 10SM CLR 26/22 A2994 RMK AO2 T02620220
KMKN 161300Z AUTO 18009KT 10SM CLR 26/22 A2994 RMK AO2 T02590218
KMKN 161235Z AUTO 19012G18KT 10SM CLR 26/22 A2993 RMK AO2 T02550218
KMKN 161215Z AUTO 18010G15KT 10SM CLR 25/22 A2993 RMK AO2 T02540220
KMKN 161155Z AUTO 18010G14KT 10SM SCT110 26/22 A2992 RMK AO2 T02550220 10285 20255
KMKN 161135Z AUTO 19011KT 10SM SCT120 26/22 A2992 RMK AO2 T02550219
KMKN 161115Z AUTO 19009G15KT 10SM CLR 26/22 A2991 RMK AO2 T02560219
KMKN 161055Z AUTO 18009G14KT 10SM CLR 26/22 A2991 RMK AO2 T02550218
KMKN 161035Z AUTO 17008KT 10SM CLR 26/22 A2991 RMK AO2 T02570217
KMKN 161015Z AUTO 17009KT 10SM CLR 26/22 A2990 RMK AO2 T02590218
KMKN 160955Z AUTO 19008KT 10SM CLR 26/22 A2990 RMK AO2 T02600220
KMKN 160935Z AUTO 18008KT 10SM CLR 26/22 A2989 RMK AO2 T02630220
KMKN 160915Z AUTO 17008G14KT 10SM CLR 27/22 A2989 RMK AO2 T02650220
KMKN 160855Z AUTO 18006KT 10SM CLR 27/22 A2989 RMK AO2 T02660220
KMKN 160835Z AUTO 19009KT 10SM SCT120 27/22 A2989 RMK AO2 T02710220
KMKN 160815Z AUTO 19011G17KT 10SM BKN120 28/22 A2989 RMK AO2 T02750221
KMKN 160755Z AUTO 19010G16KT 10SM SCT120 28/22 A2989 RMK AO2 T02750221
KMKN 160735Z AUTO 18011G16KT 10SM BKN120 28/22 A2989 RMK AO2 T02770221
KMKN 160715Z AUTO 19012G17KT 10SM SCT120 28/22 A2989 RMK AO2 T02800220
KMKN 160655Z AUTO 18007KT 10SM SCT120 28/22 A2989 RMK AO2 T02790216
KMKN 160635Z AUTO 18007KT 10SM SCT120 28/22 A2988 RMK AO2 T02820216
KMKN 160615Z AUTO 17008G14KT 10SM SCT120 28/21 A2988 RMK AO2 T02830212
KMKN 160555Z AUTO 17010G15KT 10SM SCT120 28/21 A2989 RMK AO2 T02800210 10307 20265 403570250
KMKN 160535Z AUTO 16005KT 10SM CLR 27/21 A2989 RMK AO2 T02730210
KMKN 160515Z AUTO 15004KT 10SM CLR 27/21 A2989 RMK AO2 T02690214
KMKN 160455Z AUTO 15003KT 10SM CLR 27/22 A2989 RMK AO2 T02680220
KMKN 160435Z AUTO 00000KT 10SM CLR 27/22 A2989 RMK AO2 T02720217
KMKN 160415Z AUTO 00000KT 10SM SCT120 27/22 A2989 RMK AO2 T02720215
KMKN 160355Z AUTO 12003KT 10SM CLR 28/22 A2989 RMK AO2 T02750215
KMKN 160335Z AUTO 00000KT 10SM CLR 28/21 A2987 RMK AO2 T02770213
KMKN 160315Z AUTO 00000KT 10SM CLR 28/21 A2987 RMK AO2 T02800211
KMKN 160255Z AUTO 18006KT 10SM CLR 28/22 A2986 RMK AO2 T02750215
KMKN 160235Z AUTO 19005KT 10SM CLR 27/22 A2985 RMK AO2 T02700219
KMKN 160215Z AUTO 20006KT 10SM CLR 27/22 A2983 RMK AO2 T02680221
KMKN 160155Z AUTO 21005KT 10SM CLR 27/22 A2982 RMK AO2 T02700222
KMKN 160135Z AUTO 19004KT 10SM CLR 27/23 A2981 RMK AO2 T02710225
KMKN 160115Z AUTO 20006KT 10SM CLR 28/22 A2981 RMK AO2 T02780220
KMKN 160055Z AUTO 14004KT 10SM CLR 28/22 A2980 RMK AO2 T02830218
KMKN 160035Z AUTO 00000KT 10SM CLR 29/22 A2980 RMK AO2 T02880216
KMKN 160015Z AUTO 22004KT 10SM SCT035 SCT048 29/21 A2981 RMK AO2 T02930214
KMKN 152355Z AUTO 19006KT 10SM SCT075 31/21 A2982 RMK AO2 T03090209 10357 20285
KMKN 152340Z AUTO 17008KT 10SM SCT065 SCT075 32/21 A2982 RMK AO2 LTG DSNT W T03160205
KMKN 152315Z AUTO 15006KT 10SM SCT065 33/21 A2982 RMK AO2 T03270210
KMKN 152255Z AUTO 11004KT 10SM BKN065 33/21 A2982 RMK AO2 LTG DSNT S AND W T03270211
KMKN 152235Z AUTO 20004KT 10SM SCT065 33/20 A2982 RMK AO2 LTG DSNT SW T03270203
KMKN 152215Z AUTO 00000KT 10SM CLR 33/20 A2982 RMK AO2 LTG DSNT SW T03300202
KMKN 152155Z AUTO 17004KT 10SM SCT055 SCT110 34/20 A2983 RMK AO2 LTG DSNT SW T03410202
KMKN 152135Z AUTO 16006KT 10SM SCT055 BKN070 BKN095 33/21 A2983 RMK AO2 LTG DSNT SW T03330205
KMKN 152115Z AUTO 25005KT 10SM SCT055 SCT070 35/20 A2984 RMK AO2 LTG DSNT SW T03540196
KMKN 152100Z AUTO 30004KT 10SM SCT048 35/20 A2985 RMK AO2 T03460201
KMKN 152035Z AUTO 19004KT 10SM SCT046 SCT055 35/21 A2986 RMK AO2 T03450207
KMKN 152015Z AUTO 19005KT 10SM SCT044 SCT055 33/21 A2987 RMK AO2 T03340212
KMKN 151955Z AUTO 15005G14KT 10SM SCT038 34/22 A2988 RMK AO2 T03350216
KMKN 151935Z AUTO 15006KT 10SM SCT038 33/22 A2988 RMK AO2 T03310217
KMKN 151915Z AUTO 17006KT 10SM CLR 32/22 A2989 RMK AO2 T03200216
KMKN 151855Z AUTO 16006KT 10SM CLR 32/22 A2990 RMK AO2 T03180217
KMKN 151840Z AUTO 17007KT 10SM SCT026 31/22 A2991 RMK AO2 T03090219
KMKN 151815Z AUTO 22005KT 10SM BKN026 29/22 A2992 RMK AO2 T02900219
KMKN 151755Z AUTO 21004KT 10SM BKN026 29/22 A2992 RMK AO2 T02860217 10293 20252
KMKN 151735Z AUTO 22005KT 10SM BKN024 29/22 A2993 RMK AO2 T02890218
KMKN 151715Z AUTO 20005KT 10SM BKN024 29/22 A2993 RMK AO2 T02850219
KMKN 151655Z AUTO 23007KT 10SM SCT024 29/22 A2994 RMK AO2 T02880218
KMKN 151635Z AUTO 22008KT 10SM SCT024 29/22 A2993 RMK AO2 LTG DSNT W T02860217
KMKN 151615Z AUTO 20007KT 10SM SCT024 29/22 A2992 RMK AO2 LTG DSNT W T02910220
KMKN 151555Z AUTO 21006KT 10SM SCT024 28/22 A2993 RMK AO2 T02800216
KMKN 151535Z AUTO 20006KT 10SM CLR 27/22 A2992 RMK AO2 LTG DSNT NW T02720216
KMKN 151515Z AUTO 22008KT 10SM CLR 27/22 A2991 RMK AO2 LTG DSNT W T02680217
KMKN 151455Z AUTO 19007KT 10SM CLR 27/22 A2991 RMK AO2 T02670219
KMKN 151435Z AUTO 19007KT 10SM CLR 27/22 A2990 RMK AO2 T02660219
KMKN 151415Z AUTO 19008KT 10SM CLR 27/22 A2990 RMK AO2 T02650221
KMKN 151355Z AUTO 20007KT 10SM CLR 26/22 A2989 RMK AO2 T02600220
KMKN 151335Z AUTO 19009KT 10SM SCT120 26/22 A2989 RMK AO2 T02560220
KMKN 151315Z AUTO 18008KT 10SM BKN120 26/22 A2989 RMK AO2 T02550220
KMKN 151255Z AUTO 18005KT 10SM OVC120 25/22 A2989 RMK AO2 T02530220
KMKN 151235Z AUTO 17004KT 10SM OVC120 25/22 A2988 RMK AO2 T02520220
KMKN 151215Z AUTO 17008KT 10SM BKN120 25/22 A2987 RMK AO2 T02520220
KMKN 151155Z AUTO 16008KT 10SM CLR 25/22 A2986 RMK AO2 T02520218 10272 20250
KMKN 151135Z AUTO 17007KT 10SM CLR 25/22 A2986 RMK AO2 T02520217
KMKN 151115Z AUTO 16007KT 10SM CLR 26/22 A2986 RMK AO2 T02550216
KMKN 151055Z AUTO 17007KT 10SM CLR 26/22 A2985 RMK AO2 T02560216
KMKN 151035Z AUTO 17007KT 10SM CLR 26/22 A2985 RMK AO2 T02570215
KMKN 151015Z AUTO 17008KT 10SM CLR 26/22 A2985 RMK AO2 T02580215
KMKN 150955Z AUTO 17007KT 10SM CLR 26/22 A2985 RMK AO2 T02600215
KMKN 150935Z AUTO 17007KT 10SM CLR 26/21 A2984 RMK AO2 T02590213
KMKN 150915Z AUTO 16006KT 10SM CLR 26/21 A2984 RMK AO2 T02580212
KMKN 150855Z AUTO 17006KT 10SM CLR 26/21 A2984 RMK AO2 T02600212
KMKN 150835Z AUTO 18008KT 10SM CLR 26/21 A2984 RMK AO2 T02620211
KMKN 150815Z AUTO 18007KT 10SM CLR 27/21 A2984 RMK AO2 T02660210
KMKN 150755Z AUTO 18008KT 10SM CLR 27/21 A2985 RMK AO2 T02670209
KMKN 150735Z AUTO 18010KT 10SM CLR 27/21 A2984 RMK AO2 T02700207